Time;durP1;ratioP1;P1;durP2;ratioP2;P2;SDS_P1;SDS_P2;PMS_P1;PMS_P2;Temp;Humidity;BMP_temperature;BMP_pressure;BME280_temperature;BME280_humidity;BME280_pressure;Samples;Min_cycle;Max_cycle;Signal;HPM_P1;HPM_P2
2023/08/22 00:01:54;;;;;;;11.25;7.45;;;22.20;99.90;;;;;;4097164;28;20625;-62
2023/08/22 00:03:56;;;;;;;10.63;7.95;;;22.10;99.90;;;;;;4098151;29;20452;-64
2023/08/22 00:05:58;;;;;;;8.38;7.35;;;22.10;99.90;;;;;;4097005;28;20563;-64
2023/08/22 00:08:05;;;;;;;7.93;7.22;;;22.00;99.90;;;;;;4097950;28;20043;-64
2023/08/22 00:10:07;;;;;;;9.07;8.07;;;21.90;99.90;;;;;;4107889;28;20070;-63
2023/08/22 00:12:09;;;;;;;7.97;7.20;;;21.80;99.90;;;;;;4103117;28;20507;-62
2023/08/22 00:14:10;;;;;;;8.60;7.72;;;21.70;99.90;;;;;;4113314;28;20031;-64
2023/08/22 00:16:11;;;;;;;10.07;7.82;;;21.60;99.90;;;;;;4112464;28;20090;-64
2023/08/22 00:18:12;;;;;;;8.38;7.57;;;21.60;99.90;;;;;;4106840;28;20055;-65
2023/08/22 00:20:13;;;;;;;9.38;7.43;;;21.60;99.90;;;;;;4110741;28;20415;-64
2023/08/22 00:22:15;;;;;;;10.27;7.88;;;21.60;99.90;;;;;;4104605;28;20094;-64
2023/08/22 00:24:16;;;;;;;8.15;7.35;;;21.60;99.90;;;;;;4097557;28;20095;-65
2023/08/22 00:26:17;;;;;;;11.57;7.35;;;21.60;99.90;;;;;;4097351;28;20024;-64
2023/08/22 00:28:18;;;;;;;10.45;7.53;;;21.70;99.90;;;;;;4097445;29;20080;-65
2023/08/22 00:30:19;;;;;;;8.02;7.22;;;21.70;99.90;;;;;;4098570;28;20031;-63
2023/08/22 00:32:21;;;;;;;12.65;7.30;;;21.70;99.90;;;;;;4101967;28;20102;-65
2023/08/22 00:34:22;;;;;;;8.20;7.40;;;21.70;99.90;;;;;;4097964;28;20479;-62
2023/08/22 00:36:23;;;;;;;10.13;7.05;;;21.70;99.90;;;;;;4110935;28;20094;-65
2023/08/22 00:38:24;;;;;;;9.15;7.80;;;21.80;99.90;;;;;;4110201;28;20042;-64
2023/08/22 00:40:25;;;;;;;7.90;7.18;;;21.80;99.90;;;;;;4111930;28;20348;-63
2023/08/22 00:42:26;;;;;;;10.73;7.18;;;21.80;99.90;;;;;;4113413;28;20073;-64
2023/08/22 00:44:27;;;;;;;8.18;7.38;;;21.80;99.90;;;;;;4112118;28;20051;-64
2023/08/22 00:46:29;;;;;;;8.52;7.72;;;21.80;99.90;;;;;;4106011;28;20093;-63
2023/08/22 00:48:31;;;;;;;8.38;7.57;;;21.90;99.90;;;;;;4105731;28;20034;-64
2023/08/22 00:50:33;;;;;;;8.00;7.03;;;21.80;99.90;;;;;;4106087;28;20106;-65
2023/08/22 00:52:34;;;;;;;8.38;7.25;;;21.80;99.90;;;;;;4097304;28;20051;-65
2023/08/22 00:54:36;;;;;;;9.27;7.10;;;21.80;99.90;;;;;;4108813;28;20055;-64
2023/08/22 00:56:37;;;;;;;8.57;7.68;;;21.80;99.90;;;;;;4109975;28;20027;-63
2023/08/22 00:58:38;;;;;;;7.93;7.15;;;21.80;99.90;;;;;;4097481;28;20546;-64
2023/08/22 01:00:40;;;;;;;10.02;7.80;;;21.80;99.90;;;;;;4096956;29;20023;-61
2023/08/22 01:02:41;;;;;;;8.82;6.88;;;21.80;99.90;;;;;;4098442;28;20098;-65
2023/08/22 01:04:42;;;;;;;7.35;6.68;;;21.80;99.90;;;;;;4097053;29;20070;-62
2023/08/22 01:06:55;;;;;;;8.13;7.32;;;21.80;99.90;;;;;;4096499;28;20039;-65
2023/08/22 01:09:08;;;;;;;8.07;7.28;;;21.80;99.90;;;;;;4104461;28;20090;-62
2023/08/22 01:11:33;;;;;;;8.30;7.50;;;21.80;99.90;;;;;;4096691;28;20039;-65
2023/08/22 01:13:38;;;;;;;7.88;7.07;;;21.70;99.90;;;;;;4096983;28;20039;-64
2023/08/22 01:15:42;;;;;;;7.90;7.10;;;21.70;99.90;;;;;;4097453;28;20023;-64
2023/08/22 01:17:43;;;;;;;8.00;7.13;;;21.70;99.90;;;;;;4107603;28;20090;-64
2023/08/22 01:19:45;;;;;;;8.05;7.25;;;21.60;99.90;;;;;;4103897;28;20093;-64
2023/08/22 01:21:50;;;;;;;9.30;7.18;;;21.50;99.90;;;;;;4101332;28;20130;-61
2023/08/22 01:23:51;;;;;;;9.10;7.30;;;21.50;99.90;;;;;;4098117;28;20101;-63
2023/08/22 01:25:52;;;;;;;9.20;7.55;;;21.40;99.90;;;;;;4109890;28;20042;-64
2023/08/22 01:28:17;;;;;;;9.05;7.57;;;21.30;99.90;;;;;;4110672;28;20035;-65
2023/08/22 01:30:28;;;;;;;8.77;7.43;;;21.20;99.90;;;;;;4112646;28;20089;-64
2023/08/22 01:32:39;;;;;;;8.82;7.60;;;21.20;99.90;;;;;;4110722;28;20197;-62
2023/08/22 01:34:41;;;;;;;9.07;8.20;;;21.10;99.90;;;;;;4096586;28;20097;-62
2023/08/22 01:36:45;;;;;;;10.80;8.68;;;21.10;99.90;;;;;;4097635;28;20114;-62
2023/08/22 01:38:48;;;;;;;9.38;7.80;;;21.10;99.90;;;;;;4112523;28;20050;-63
2023/08/22 01:40:51;;;;;;;9.13;7.30;;;21.00;99.90;;;;;;4099523;28;20592;-64
2023/08/22 01:42:52;;;;;;;8.57;7.70;;;21.00;99.90;;;;;;4109677;28;20039;-62
2023/08/22 01:44:53;;;;;;;9.02;7.35;;;21.10;99.90;;;;;;4097040;28;20039;-64
2023/08/22 01:46:55;;;;;;;8.90;7.88;;;21.10;99.90;;;;;;4095164;29;20392;-63
2023/08/22 01:48:56;;;;;;;9.07;7.45;;;21.10;99.90;;;;;;4095685;29;20570;-62
2023/08/22 01:50:57;;;;;;;9.55;8.40;;;21.10;99.90;;;;;;4097547;28;20048;-62
2023/08/22 01:52:58;;;;;;;13.07;8.85;;;21.10;99.90;;;;;;4095431;28;20492;-64
2023/08/22 01:55:00;;;;;;;10.25;8.02;;;21.00;99.90;;;;;;4104714;28;20098;-64
2023/08/22 01:57:01;;;;;;;11.30;7.78;;;21.00;99.90;;;;;;4096846;28;20035;-63
2023/08/22 01:59:02;;;;;;;9.93;7.45;;;21.00;99.90;;;;;;4098372;28;20087;-63
2023/08/22 02:01:11;;;;;;;9.32;7.70;;;20.90;99.90;;;;;;4111521;28;20038;-62
2023/08/22 02:03:12;;;;;;;9.57;8.55;;;20.90;99.90;;;;;;4111750;28;20019;-66
2023/08/22 02:05:13;;;;;;;12.38;8.02;;;20.90;99.90;;;;;;4112210;28;20031;-62
2023/08/22 02:07:15;;;;;;;8.40;7.50;;;20.90;99.90;;;;;;4111399;28;20027;-65
2023/08/22 02:09:17;;;;;;;9.63;7.78;;;20.80;99.90;;;;;;4105234;28;20031;-65
2023/08/22 02:11:18;;;;;;;12.02;7.95;;;20.80;99.90;;;;;;4104921;28;20030;-62
2023/08/22 02:13:20;;;;;;;10.27;8.30;;;20.80;99.90;;;;;;4111321;28;20039;-63
2023/08/22 02:15:21;;;;;;;9.70;7.97;;;20.80;99.90;;;;;;4111937;28;20039;-62
2023/08/22 02:17:22;;;;;;;10.60;8.32;;;20.80;99.90;;;;;;4110690;28;20035;-63
2023/08/22 02:19:23;;;;;;;14.63;8.75;;;20.70;99.90;;;;;;4095642;28;20051;-65
2023/08/22 02:21:24;;;;;;;9.20;8.00;;;20.70;99.90;;;;;;4096153;28;20486;-63
2023/08/22 02:23:26;;;;;;;10.02;8.38;;;20.70;99.90;;;;;;4095211;28;20028;-62
2023/08/22 02:25:28;;;;;;;9.90;7.78;;;20.70;99.90;;;;;;4101273;28;20545;-62
2023/08/22 02:27:29;;;;;;;9.20;8.30;;;20.70;99.90;;;;;;4093591;28;20038;-63
2023/08/22 02:29:31;;;;;;;10.93;8.85;;;20.70;99.90;;;;;;4110373;28;20035;-64
2023/08/22 02:31:32;;;;;;;8.65;7.75;;;20.70;99.90;;;;;;4096817;28;20107;-64
2023/08/22 02:33:33;;;;;;;11.27;8.52;;;20.70;99.90;;;;;;4099180;28;20039;-64
2023/08/22 02:35:34;;;;;;;8.65;7.78;;;20.70;99.90;;;;;;4107133;28;20110;-63
2023/08/22 02:37:36;;;;;;;10.05;8.95;;;20.70;99.90;;;;;;4098963;28;20081;-64
2023/08/22 02:39:37;;;;;;;12.10;7.80;;;20.70;99.90;;;;;;4097894;28;20047;-66
2023/08/22 02:41:38;;;;;;;11.43;8.73;;;20.60;99.90;;;;;;4095149;28;20511;-65
2023/08/22 02:43:39;;;;;;;9.82;7.93;;;20.60;99.90;;;;;;4098374;28;20039;-64
2023/08/22 02:45:40;;;;;;;10.73;8.68;;;20.50;99.90;;;;;;4097576;28;20047;-65
2023/08/22 02:47:42;;;;;;;9.48;7.88;;;20.50;99.90;;;;;;4099087;28;20039;-65
2023/08/22 02:49:43;;;;;;;10.07;8.77;;;20.50;99.90;;;;;;4101085;28;20118;-65
2023/08/22 02:51:44;;;;;;;9.25;8.35;;;20.40;99.90;;;;;;4102204;28;20031;-65
2023/08/22 02:53:45;;;;;;;10.85;8.70;;;20.40;99.90;;;;;;4102785;28;20023;-65
2023/08/22 02:55:47;;;;;;;10.05;8.98;;;20.40;99.90;;;;;;4106415;28;20105;-66
2023/08/22 02:57:48;;;;;;;9.85;8.20;;;20.40;99.90;;;;;;4097606;28;20098;-64
2023/08/22 02:59:50;;;;;;;11.63;9.02;;;20.40;99.90;;;;;;4099685;28;20023;-62
2023/08/22 03:01:51;;;;;;;9.43;8.52;;;20.40;99.90;;;;;;4108544;28;20530;-65
2023/08/22 03:03:54;;;;;;;12.35;7.78;;;20.40;99.90;;;;;;4108906;28;20023;-66
2023/08/22 03:05:57;;;;;;;12.48;8.23;;;20.40;99.90;;;;;;4098559;29;20074;-63
2023/08/22 03:07:59;;;;;;;9.82;8.57;;;20.40;99.90;;;;;;4098928;28;20038;-64
2023/08/22 03:10:00;;;;;;;9.90;8.73;;;20.40;99.90;;;;;;4107537;28;20117;-64
2023/08/22 03:12:01;;;;;;;10.93;9.00;;;20.40;99.90;;;;;;4102682;28;20431;-64
2023/08/22 03:14:02;;;;;;;9.07;8.20;;;20.30;99.90;;;;;;4112854;28;20109;-64
2023/08/22 03:16:04;;;;;;;10.05;8.70;;;20.30;99.90;;;;;;4113801;28;20043;-64
2023/08/22 03:18:06;;;;;;;10.23;8.73;;;20.30;99.90;;;;;;4099799;28;20055;-63
2023/08/22 03:20:07;;;;;;;13.82;8.80;;;20.20;99.90;;;;;;4097724;29;20826;-64
2023/08/22 03:22:09;;;;;;;9.10;8.10;;;20.20;99.90;;;;;;4098888;29;20428;-65
2023/08/22 03:24:10;;;;;;;9.05;8.18;;;20.30;99.90;;;;;;4102468;28;20109;-63
2023/08/22 03:26:11;;;;;;;10.35;8.55;;;20.30;99.90;;;;;;4106524;28;20043;-64
2023/08/22 03:28:13;;;;;;;12.65;9.13;;;20.30;99.90;;;;;;4113633;28;20041;-65
2023/08/22 03:30:14;;;;;;;12.27;8.00;;;20.30;99.90;;;;;;4114339;28;20097;-66
2023/08/22 03:32:15;;;;;;;10.77;8.52;;;20.30;99.90;;;;;;4103611;28;20105;-65
2023/08/22 03:34:16;;;;;;;9.10;8.05;;;20.30;99.90;;;;;;4110722;28;21104;-65
2023/08/22 03:36:17;;;;;;;10.48;8.65;;;20.30;99.90;;;;;;4105190;28;20094;-64
2023/08/22 03:38:19;;;;;;;12.35;8.75;;;20.20;99.90;;;;;;4113573;28;20419;-61
2023/08/22 03:40:20;;;;;;;11.32;8.07;;;20.20;99.90;;;;;;4114054;28;20082;-63
2023/08/22 03:42:21;;;;;;;9.00;8.10;;;20.20;99.90;;;;;;4109078;28;20035;-63
2023/08/22 03:44:22;;;;;;;10.40;8.13;;;20.20;99.90;;;;;;4098671;28;20087;-63
2023/08/22 03:46:23;;;;;;;11.75;8.40;;;20.30;99.90;;;;;;4096608;28;20377;-63
2023/08/22 03:48:25;;;;;;;9.52;8.60;;;20.30;99.90;;;;;;4098336;29;21561;-62
2023/08/22 03:50:26;;;;;;;12.35;9.05;;;20.30;99.90;;;;;;4097920;28;20039;-62
2023/08/22 03:52:27;;;;;;;10.15;9.10;;;20.30;99.90;;;;;;4098222;29;20365;-59
2023/08/22 03:54:28;;;;;;;11.68;10.27;;;20.40;99.90;;;;;;4097056;29;20122;-62
2023/08/22 03:56:29;;;;;;;10.48;9.18;;;20.40;99.90;;;;;;4103444;28;20042;-63
2023/08/22 03:58:30;;;;;;;13.48;9.10;;;20.60;99.90;;;;;;4106048;28;20093;-62
2023/08/22 04:00:31;;;;;;;10.88;8.50;;;20.70;99.90;;;;;;4106482;28;20036;-62
2023/08/22 04:02:33;;;;;;;10.25;8.88;;;20.90;99.90;;;;;;4096957;28;20272;-64
2023/08/22 04:04:34;;;;;;;15.05;9.10;;;21.10;99.90;;;;;;4100645;28;20462;-63
2023/08/22 04:06:35;;;;;;;10.30;9.27;;;21.30;99.90;;;;;;4097406;28;20424;-60
2023/08/22 04:08:36;;;;;;;12.90;9.45;;;21.50;99.90;;;;;;4095539;28;20054;-62
2023/08/22 04:10:37;;;;;;;10.50;8.57;;;21.70;99.90;;;;;;4100462;28;20046;-65
2023/08/22 04:12:38;;;;;;;11.48;8.48;;;22.00;99.90;;;;;;4112028;28;20066;-62
2023/08/22 04:14:39;;;;;;;11.43;8.60;;;22.30;99.90;;;;;;4114082;28;20080;-62
2023/08/22 04:16:41;;;;;;;12.45;8.63;;;22.50;99.90;;;;;;4110635;28;20474;-61
2023/08/22 04:18:42;;;;;;;12.63;9.00;;;22.60;99.90;;;;;;4113467;28;20325;-63
2023/08/22 04:20:43;;;;;;;10.18;8.45;;;22.50;99.90;;;;;;4112659;28;20035;-62
2023/08/22 04:22:44;;;;;;;11.52;8.70;;;22.80;99.90;;;;;;4113057;28;20034;-61
2023/08/22 04:24:45;;;;;;;11.60;8.23;;;23.20;99.90;;;;;;4111937;28;20090;-63
2023/08/22 04:26:46;;;;;;;12.85;8.00;;;23.50;99.90;;;;;;4112895;28;20097;-62
2023/08/22 04:28:48;;;;;;;10.07;7.53;;;23.70;99.90;;;;;;4099875;28;20476;-61
2023/08/22 04:30:49;;;;;;;9.18;8.20;;;23.90;99.90;;;;;;4097400;29;20043;-61
2023/08/22 04:32:50;;;;;;;8.88;7.72;;;24.20;99.90;;;;;;4096712;29;20037;-61
2023/08/22 04:34:51;;;;;;;8.18;7.38;;;24.30;99.90;;;;;;4096860;28;20114;-63
2023/08/22 04:36:52;;;;;;;11.77;8.23;;;24.60;99.90;;;;;;4095930;29;20078;-62
2023/08/22 04:38:53;;;;;;;12.57;10.75;;;25.00;99.90;;;;;;4096216;28;20573;-62
2023/08/22 04:40:55;;;;;;;9.63;7.50;;;25.40;99.90;;;;;;4097240;29;20027;-62
2023/08/22 04:42:56;;;;;;;11.68;7.40;;;25.80;99.90;;;;;;4095861;28;20051;-64
2023/08/22 04:44:57;;;;;;;13.27;6.53;;;26.30;99.90;;;;;;4097584;28;20047;-65
2023/08/22 04:46:58;;;;;;;7.03;6.20;;;26.70;99.90;;;;;;4096268;29;20039;-67
2023/08/22 04:48:59;;;;;;;7.78;6.85;;;26.90;99.90;;;;;;4097269;29;20027;-64
2023/08/22 04:51:00;;;;;;;13.07;6.85;;;26.70;99.90;;;;;;4096020;28;20101;-63
2023/08/22 04:53:02;;;;;;;9.35;6.90;;;26.50;99.90;;;;;;4097371;29;20424;-65
2023/08/22 04:55:04;;;;;;;7.10;6.32;;;26.60;99.90;;;;;;4095968;28;20086;-63
2023/08/22 04:57:06;;;;;;;8.35;6.65;;;26.50;99.90;;;;;;4097152;28;20043;-63
2023/08/22 04:59:08;;;;;;;7.90;6.32;;;26.60;99.90;;;;;;4096096;29;20043;-63
2023/08/22 05:01:09;;;;;;;13.02;6.32;;;27.00;99.90;;;;;;4096631;28;20090;-61
2023/08/22 05:03:10;;;;;;;9.70;6.72;;;26.90;99.90;;;;;;4096634;29;20035;-62
2023/08/22 05:05:11;;;;;;;6.63;6.03;;;26.90;99.90;;;;;;4096675;28;20067;-63
2023/08/22 05:07:12;;;;;;;7.43;6.38;;;27.00;99.90;;;;;;4096695;29;20027;-62
2023/08/22 05:09:14;;;;;;;8.63;7.35;;;27.20;99.90;;;;;;4095947;28;20158;-66
2023/08/22 05:11:15;;;;;;;9.48;6.47;;;27.60;99.90;;;;;;4096650;28;20381;-63
2023/08/22 05:13:16;;;;;;;7.75;5.85;;;28.30;99.90;;;;;;4095821;29;20071;-65
2023/08/22 05:15:17;;;;;;;8.20;6.43;;;28.70;99.90;;;;;;4096809;28;20043;-61
2023/08/22 05:17:19;;;;;;;11.52;5.75;;;29.10;99.90;;;;;;4095830;29;20035;-61
2023/08/22 05:19:20;;;;;;;5.80;5.20;;;29.60;99.90;;;;;;4096536;28;20519;-66
2023/08/22 05:21:21;;;;;;;13.40;6.90;;;30.20;99.90;;;;;;4095567;28;20083;-65
2023/08/22 05:23:22;;;;;;;6.75;5.75;;;30.50;99.90;;;;;;4096377;28;20078;-64
2023/08/22 05:25:23;;;;;;;9.73;5.65;;;30.40;99.90;;;;;;4095739;29;21061;-65
2023/08/22 05:27:24;;;;;;;7.13;5.97;;;30.70;99.90;;;;;;4096773;29;20035;-66
2023/08/22 05:29:26;;;;;;;6.35;5.47;;;31.10;99.50;;;;;;4095362;28;20043;-64
2023/08/22 05:31:27;;;;;;;9.07;6.38;;;31.90;98.80;;;;;;4096213;28;20051;-63
2023/08/22 05:33:28;;;;;;;7.95;5.68;;;32.40;97.90;;;;;;4096041;29;20807;-63
2023/08/22 05:35:30;;;;;;;11.02;6.07;;;32.60;97.20;;;;;;4094145;29;20413;-66
2023/08/22 05:37:31;;;;;;;6.70;5.88;;;33.00;96.60;;;;;;4095752;28;20082;-62
2023/08/22 05:39:32;;;;;;;8.02;5.28;;;33.00;96.10;;;;;;4095682;29;20047;-66
2023/08/22 05:41:33;;;;;;;6.65;6.05;;;33.10;95.70;;;;;;4096309;28;20097;-63
2023/08/22 05:43:35;;;;;;;7.68;6.10;;;32.80;95.40;;;;;;4095684;28;20039;-67
2023/08/22 05:45:36;;;;;;;8.05;5.55;;;32.70;95.40;;;;;;4096279;28;20455;-60
2023/08/22 05:47:38;;;;;;;6.32;5.55;;;32.50;95.20;;;;;;4095366;28;20444;-62
2023/08/22 05:49:42;;;;;;;6.32;5.18;;;32.20;95.20;;;;;;4096803;29;20090;-62
2023/08/22 05:51:44;;;;;;;7.18;5.88;;;32.10;95.30;;;;;;4093897;29;20117;-61
2023/08/22 05:53:45;;;;;;;9.30;6.05;;;32.20;95.10;;;;;;4096600;29;20031;-62
2023/08/22 05:55:46;;;;;;;5.68;4.88;;;32.20;95.10;;;;;;4095437;29;20070;-63
2023/08/22 05:57:47;;;;;;;6.15;4.75;;;32.50;94.70;;;;;;4096073;28;20039;-62
2023/08/22 05:59:49;;;;;;;9.43;5.55;;;32.90;94.40;;;;;;4094998;28;20106;-62
2023/08/22 06:01:50;;;;;;;10.65;5.20;;;33.30;94.00;;;;;;4096373;29;20476;-62
2023/08/22 06:03:51;;;;;;;5.40;4.90;;;33.60;93.50;;;;;;4095323;28;20420;-61
2023/08/22 06:05:52;;;;;;;7.22;5.68;;;33.40;93.30;;;;;;4095633;29;20035;-61
2023/08/22 06:07:54;;;;;;;5.68;5.18;;;33.20;93.40;;;;;;4095664;29;20074;-62
2023/08/22 06:09:55;;;;;;;7.68;5.30;;;33.30;93.20;;;;;;4095588;29;20388;-62
2023/08/22 06:11:56;;;;;;;11.40;5.10;;;33.90;93.20;;;;;;4095880;29;20034;-62
2023/08/22 06:13:57;;;;;;;5.80;5.18;;;34.10;92.70;;;;;;4094625;28;20106;-62
2023/08/22 06:15:58;;;;;;;7.13;5.18;;;34.50;92.20;;;;;;4096265;29;20101;-64
2023/08/22 06:17:59;;;;;;;6.00;5.50;;;34.30;91.90;;;;;;4095048;29;20113;-62
2023/08/22 06:20:02;;;;;;;7.05;5.40;;;34.60;91.80;;;;;;4095509;28;20122;-63
2023/08/22 06:22:04;;;;;;;9.18;5.40;;;34.60;91.60;;;;;;4094627;28;20127;-63
2023/08/22 06:24:05;;;;;;;7.88;5.65;;;33.20;91.20;;;;;;4096103;28;20050;-61
2023/08/22 06:26:13;;;;;;;9.27;5.70;;;30.70;93.40;;;;;;4094987;29;20035;-63
2023/08/22 06:28:14;;;;;;;8.05;5.75;;;30.50;94.20;;;;;;4095777;29;20074;-62
2023/08/22 06:30:15;;;;;;;9.55;5.18;;;30.70;94.20;;;;;;4094365;28;20043;-62
2023/08/22 06:32:21;;;;;;;8.95;5.57;;;30.70;94.00;;;;;;4095929;28;20082;-63
2023/08/22 06:34:22;;;;;;;7.93;6.07;;;31.00;94.10;;;;;;4094543;28;20090;-63
2023/08/22 06:36:23;;;;;;;5.80;5.22;;;31.10;93.90;;;;;;4095448;28;20188;-63
2023/08/22 06:38:25;;;;;;;10.50;6.85;;;31.10;93.90;;;;;;4095097;29;20019;-62
2023/08/22 06:40:26;;;;;;;13.68;6.78;;;30.90;94.00;;;;;;4095359;29;20114;-61
2023/08/22 06:42:27;;;;;;;10.98;5.63;;;31.20;93.70;;;;;;4094476;29;20031;-63
2023/08/22 06:44:28;;;;;;;11.02;5.88;;;30.60;94.30;;;;;;4094497;28;20039;-63
2023/08/22 06:46:29;;;;;;;7.60;6.65;;;31.00;94.10;;;;;;4095676;29;20412;-63
2023/08/22 06:48:31;;;;;;;7.82;5.70;;;30.70;94.40;;;;;;4094806;29;20503;-62
2023/08/22 06:50:32;;;;;;;7.60;5.57;;;31.40;93.90;;;;;;4095972;29;20086;-65
2023/08/22 06:52:34;;;;;;;11.32;6.22;;;31.20;93.70;;;;;;4093216;29;20043;-61
2023/08/22 06:54:35;;;;;;;14.85;6.47;;;31.00;93.80;;;;;;4095995;29;20027;-61
2023/08/22 06:56:36;;;;;;;12.00;6.63;;;30.40;94.30;;;;;;4094305;28;20034;-62
2023/08/22 06:58:38;;;;;;;9.27;6.53;;;30.80;94.40;;;;;;4089775;28;20106;-62
2023/08/22 07:00:39;;;;;;;7.20;6.50;;;30.90;93.90;;;;;;4093896;29;20047;-62
2023/08/22 07:02:45;;;;;;;9.60;6.88;;;31.00;94.10;;;;;;4095787;28;20039;-62
2023/08/22 07:04:47;;;;;;;8.77;6.85;;;31.20;93.60;;;;;;4094109;28;20100;-63
2023/08/22 07:06:48;;;;;;;8.73;6.60;;;29.60;94.60;;;;;;4094549;28;20051;-62
2023/08/22 07:08:51;;;;;;;8.20;6.80;;;28.50;96.30;;;;;;4094308;28;20090;-64
2023/08/22 07:10:56;;;;;;;7.00;6.30;;;29.70;95.60;;;;;;4093805;29;20039;-63
2023/08/22 07:12:58;;;;;;;6.90;5.60;;;29.70;95.40;;;;;;4094664;28;20047;-64
2023/08/22 07:14:59;;;;;;;9.75;6.82;;;31.00;94.70;;;;;;4095447;29;20440;-63
2023/08/22 07:17:00;;;;;;;8.85;6.68;;;31.50;93.80;;;;;;4095328;28;20039;-62
2023/08/22 07:19:01;;;;;;;6.72;6.13;;;31.00;93.90;;;;;;4094627;28;20035;-62
2023/08/22 07:21:07;;;;;;;11.85;6.57;;;30.30;94.60;;;;;;4095188;29;20035;-62
2023/08/22 07:23:08;;;;;;;7.10;6.40;;;30.00;95.00;;;;;;4094784;28;20039;-62
2023/08/22 07:25:09;;;;;;;11.02;5.97;;;30.00;94.70;;;;;;4095431;28;20082;-63
2023/08/22 07:27:11;;;;;;;10.32;6.13;;;29.10;95.90;;;;;;4094617;28;20106;-62
2023/08/22 07:29:12;;;;;;;7.75;6.18;;;28.90;96.40;;;;;;4084204;28;20044;-64
2023/08/22 07:31:13;;;;;;;11.38;6.10;;;29.40;96.00;;;;;;4077806;29;20083;-62
2023/08/22 07:33:14;;;;;;;6.78;6.07;;;30.00;95.50;;;;;;4081661;29;20032;-61
2023/08/22 07:35:16;;;;;;;7.50;6.10;;;30.60;95.20;;;;;;4080677;29;20448;-59
2023/08/22 07:37:17;;;;;;;10.52;6.45;;;31.00;95.00;;;;;;4089335;28;20550;-61
2023/08/22 07:39:19;;;;;;;10.15;6.97;;;31.70;94.60;;;;;;4096787;28;20047;-62
2023/08/22 07:41:20;;;;;;;8.43;5.93;;;31.90;94.10;;;;;;4098349;29;20063;-62
2023/08/22 07:43:21;;;;;;;13.90;7.00;;;32.10;94.00;;;;;;4097548;28;20044;-62
2023/08/22 07:45:23;;;;;;;13.18;7.80;;;32.10;93.70;;;;;;4097907;29;20093;-63
2023/08/22 07:47:24;;;;;;;8.55;6.70;;;32.00;93.70;;;;;;4097519;28;20043;-63
2023/08/22 07:49:26;;;;;;;12.27;6.93;;;32.10;93.60;;;;;;4097015;28;20032;-61
2023/08/22 07:51:27;;;;;;;12.40;6.95;;;31.90;93.50;;;;;;4092968;28;20506;-62
2023/08/22 07:53:28;;;;;;;18.20;8.20;;;31.70;93.50;;;;;;4096691;29;20424;-63
2023/08/22 07:55:30;;;;;;;17.92;7.18;;;31.60;93.60;;;;;;4096867;29;20126;-63
2023/08/22 07:57:31;;;;;;;9.07;6.88;;;31.60;93.60;;;;;;4095911;28;20027;-64
2023/08/22 07:59:32;;;;;;;12.88;6.75;;;31.70;93.60;;;;;;4097684;29;20035;-61
2023/08/22 08:01:36;;;;;;;10.63;6.85;;;31.70;93.50;;;;;;4096827;29;20031;-62
2023/08/22 08:03:37;;;;;;;7.93;6.82;;;31.60;93.50;;;;;;4098104;29;20031;-62
2023/08/22 08:05:38;;;;;;;10.88;6.63;;;31.40;93.60;;;;;;4096455;28;20051;-61
2023/08/22 08:07:40;;;;;;;12.32;7.03;;;31.20;93.70;;;;;;4097293;28;20185;-62
2023/08/22 08:09:41;;;;;;;8.52;6.72;;;30.80;94.00;;;;;;4096381;28;20082;-63
2023/08/22 08:11:42;;;;;;;13.63;8.25;;;30.60;94.20;;;;;;4097806;29;20420;-62
2023/08/22 08:13:43;;;;;;;10.18;7.82;;;30.60;94.40;;;;;;4096631;29;20023;-61
2023/08/22 08:15:44;;;;;;;9.07;6.40;;;30.80;94.30;;;;;;4097554;29;20027;-61
2023/08/22 08:17:46;;;;;;;7.50;6.57;;;31.30;94.10;;;;;;4097252;29;20023;-61
2023/08/22 08:19:48;;;;;;;8.02;7.22;;;31.70;93.70;;;;;;4097160;29;20111;-62
2023/08/22 08:21:49;;;;;;;10.25;6.63;;;32.00;93.40;;;;;;4095935;28;20047;-62
2023/08/22 08:23:50;;;;;;;9.75;6.55;;;32.00;93.30;;;;;;4096063;28;20027;-63
2023/08/22 08:25:51;;;;;;;7.15;5.90;;;32.20;93.20;;;;;;4097041;29;20035;-63
2023/08/22 08:27:52;;;;;;;7.55;6.32;;;32.40;93.10;;;;;;4096903;29;20031;-64
2023/08/22 08:29:54;;;;;;;14.05;8.30;;;32.70;93.00;;;;;;4097680;29;20392;-62
2023/08/22 08:31:59;;;;;;;11.40;7.88;;;32.30;92.90;;;;;;4096661;29;20039;-63
2023/08/22 08:34:00;;;;;;;13.57;8.05;;;31.80;93.20;;;;;;4097223;28;20036;-64
2023/08/22 08:36:03;;;;;;;14.27;7.65;;;31.40;93.50;;;;;;4096334;29;20079;-63
2023/08/22 08:38:05;;;;;;;9.40;6.68;;;31.30;93.50;;;;;;4097556;29;20178;-65
2023/08/22 08:40:08;;;;;;;9.45;6.90;;;31.10;93.70;;;;;;4095770;28;20058;-63
2023/08/22 08:42:13;;;;;;;7.90;6.53;;;31.10;93.80;;;;;;4097135;28;20035;-64
2023/08/22 08:44:15;;;;;;;10.98;7.47;;;31.40;93.70;;;;;;4095143;28;20094;-66
2023/08/22 08:46:16;;;;;;;14.40;7.60;;;31.50;93.50;;;;;;4096871;28;20071;-65
2023/08/22 08:48:18;;;;;;;10.63;6.70;;;31.30;93.50;;;;;;4095815;28;20027;-63
2023/08/22 08:50:20;;;;;;;8.30;6.68;;;31.10;93.70;;;;;;4096807;29;20024;-62
2023/08/22 08:52:21;;;;;;;12.98;7.97;;;31.00;93.60;;;;;;4096031;28;20031;-64
2023/08/22 08:54:22;;;;;;;7.78;6.88;;;30.90;93.80;;;;;;4096695;29;20023;-63
2023/08/22 08:56:23;;;;;;;9.10;6.85;;;30.80;93.90;;;;;;4096268;28;20143;-64
2023/08/22 08:58:25;;;;;;;11.52;7.97;;;31.00;93.90;;;;;;4095395;28;20117;-63
2023/08/22 09:00:29;;;;;;;11.98;7.25;;;31.10;93.70;;;;;;4096795;29;20106;-63
2023/08/22 09:02:31;;;;;;;8.07;6.40;;;31.10;93.70;;;;;;4095847;29;20079;-63
2023/08/22 09:04:32;;;;;;;11.77;7.40;;;31.20;93.70;;;;;;4096584;28;20126;-63
2023/08/22 09:06:33;;;;;;;11.43;6.43;;;31.30;93.50;;;;;;4095606;28;20051;-64
2023/08/22 09:08:35;;;;;;;11.10;6.90;;;31.60;93.30;;;;;;4096990;29;20028;-63
2023/08/22 09:10:36;;;;;;;8.02;6.57;;;31.70;93.00;;;;;;4095923;29;20079;-62
2023/08/22 09:12:38;;;;;;;9.10;7.30;;;31.60;92.90;;;;;;4096631;28;20047;-62
2023/08/22 09:14:47;;;;;;;10.32;7.05;;;31.50;92.90;;;;;;4095363;29;20027;-64
2023/08/22 09:16:49;;;;;;;15.52;7.35;;;31.50;92.70;;;;;;4096599;29;20039;-63
2023/08/22 09:18:50;;;;;;;10.98;7.15;;;31.60;92.80;;;;;;4094776;28;20039;-62
2023/08/22 09:20:53;;;;;;;10.38;7.15;;;31.90;92.80;;;;;;4096223;28;20447;-63
2023/08/22 09:22:54;;;;;;;9.52;6.38;;;32.20;92.60;;;;;;4095504;29;20504;-61
2023/08/22 09:24:55;;;;;;;7.97;6.40;;;32.30;92.40;;;;;;4096202;28;20031;-62
2023/08/22 09:26:56;;;;;;;12.40;6.72;;;32.30;92.10;;;;;;4096164;29;20495;-64
2023/08/22 09:29:03;;;;;;;9.75;7.00;;;32.50;92.00;;;;;;4096206;29;20031;-64
2023/08/22 09:31:04;;;;;;;8.05;7.00;;;32.70;92.00;;;;;;4096105;29;20094;-63
2023/08/22 09:33:05;;;;;;;9.00;7.28;;;32.70;91.70;;;;;;4095118;28;20040;-64
2023/08/22 09:35:06;;;;;;;9.43;6.70;;;32.90;91.60;;;;;;4095658;28;20058;-64
2023/08/22 09:37:07;;;;;;;8.88;6.95;;;32.90;91.60;;;;;;4095287;29;20172;-62
2023/08/22 09:39:13;;;;;;;7.53;6.72;;;33.00;91.50;;;;;;4096424;29;20035;-64
2023/08/22 09:41:21;;;;;;;8.32;7.15;;;33.10;91.40;;;;;;4094677;28;20051;-61
2023/08/22 09:43:23;;;;;;;9.50;7.13;;;33.10;91.00;;;;;;4095314;28;20372;-62
2023/08/22 09:45:26;;;;;;;9.73;6.82;;;32.70;91.10;;;;;;4095364;29;20027;-62
2023/08/22 09:47:31;;;;;;;8.07;6.55;;;32.60;91.10;;;;;;4096170;29;20439;-63
2023/08/22 09:49:33;;;;;;;9.27;6.13;;;32.80;90.90;;;;;;4095465;29;20091;-63
2023/08/22 09:51:35;;;;;;;7.20;6.20;;;33.00;90.80;;;;;;4096638;29;20032;-63
2023/08/22 09:53:37;;;;;;;8.90;6.53;;;33.20;90.70;;;;;;4095160;29;20549;-62
2023/08/22 09:55:40;;;;;;;9.57;6.43;;;33.40;90.60;;;;;;4096162;28;20059;-64
2023/08/22 09:57:41;;;;;;;8.05;5.97;;;33.40;90.40;;;;;;4094884;28;20150;-65
2023/08/22 09:59:45;;;;;;;15.77;6.32;;;33.50;90.00;;;;;;4096287;29;20027;-64
2023/08/22 10:01:48;;;;;;;10.32;5.88;;;33.40;89.70;;;;;;4095407;29;20039;-65
2023/08/22 10:03:53;;;;;;;9.25;5.10;;;33.30;89.40;;;;;;4095572;28;20039;-63
2023/08/22 10:05:54;;;;;;;9.13;5.93;;;33.30;89.20;;;;;;4095484;29;20091;-65
2023/08/22 10:07:55;;;;;;;12.95;5.78;;;33.30;88.80;;;;;;4095402;28;20102;-64
2023/08/22 10:09:57;;;;;;;9.10;5.88;;;33.20;87.70;;;;;;4095659;29;20035;-64
2023/08/22 10:12:02;;;;;;;8.93;5.60;;;33.00;88.20;;;;;;4095507;29;20111;-63
2023/08/22 10:14:05;;;;;;;9.32;4.82;;;32.70;87.30;;;;;;4095755;29;20158;-64
2023/08/22 10:16:07;;;;;;;9.15;5.72;;;32.40;86.80;;;;;;4095060;29;20031;-63
2023/08/22 10:18:08;;;;;;;7.88;6.50;;;32.40;87.20;;;;;;4096059;29;20373;-63
2023/08/22 10:20:12;;;;;;;5.85;5.35;;;32.50;87.20;;;;;;4095183;29;20043;-61
2023/08/22 10:22:14;;;;;;;5.32;4.82;;;32.70;87.20;;;;;;4095950;29;20094;-61
2023/08/22 10:24:20;;;;;;;5.90;5.30;;;32.90;86.90;;;;;;4094935;29;20090;-60
2023/08/22 10:26:25;;;;;;;6.70;5.32;;;32.80;86.20;;;;;;4095248;29;20071;-61
2023/08/22 10:28:26;;;;;;;7.63;5.55;;;32.90;86.50;;;;;;4094873;28;20460;-60
2023/08/22 10:30:27;;;;;;;8.43;6.45;;;32.90;86.50;;;;;;4094710;29;20488;-61
2023/08/22 10:32:28;;;;;;;10.77;6.32;;;33.00;86.50;;;;;;4094599;28;20483;-60